Airfield :
LOGIN :

Register | Disclaimer

   EN    FR    IT 

 










Legend :    VFR   Marginal VFR   IFR   Intensive IFR   Very Intensive IFR
Visi :
Ceiling :
>= 8 km
>= 3000ft
5 to 8 km
1000 to 3000 ft
1500m to 5 km
500 to 1000 ft
800 to 1500m
200 to 500 ft
< 800m
< 200 ft
Symbols :   Thunderstorms  Fog  Heavy snow  Heavy precipitations  Wind > 20 kt
SIGMETs :     Misc.  Thunderstorms  Icing  Turbulence  Mountain Waves  Volcanic Ashes






- Airport Elevation : -11 ft
- IATA code : AMS


EHAM - Amsterdam Schiphol

CURRENT METAR :
  • 220025Z 26009KT 9999 -RADZ FEW009 SCT015 BKN028 04/03 Q0983 NOSIG

EXPIRED METARs :
  • 212355Z 24008KT 9999 -RA FEW011 BKN030 04/03 Q0983 NOSIG
  • 212325Z 27005KT 9999 -DZRA BKN035 04/03 Q0983 TEMPO 6000 BKN013
  • 212255Z 27006KT 9999 -RADZ FEW007 SCT015 BKN025 04/03 Q0983 TEMPO 6000 BKN013
  • 212225Z 27005KT 9999 -RA FEW013 BKN027 04/03 Q0983 TEMPO 6000 BKN016
  • 212155Z VRB02KT 9999 -RA FEW013 BKN027 04/03 Q0983 RERA TEMPO 6000 BKN016

TAF TAF EHAM
Valid from the 22 at 00:00 until the 23 at 06:00 UTC


212317Z 2200/2306 28010KT 9999 -RA BKN025
PROB30
TEMPO 2200/2202 4500 RADZ BKN008
BECMG 2201/2203 25012KT NSW FEW020
BECMG 2215/2218 23008KT
BECMG 2221/2224 19007KT
TEMPO 2304/2306 6000 -RA -SHRA SCT008 BKN014 SCT020CB
PROB30
TEMPO 2305/2306 3500 RASN



MET'MAP, your aeronautical weather chart ! - Copyright ORBIFLY December 2007 - Disclaimer

ORBIFLY MET'MAP TEAM :

Programming & Development : Alexandra Zaïnal
Concept & original design : Baudouin d'Aumeries
Assistance for programming : Marc-Olivier Méhu
Technical & hardware support : Manuel Goepfert

Contact : metmap@orbifly.com




SOURCES & CREDITS :

   NOAA